createdAt,value
2018-07-30T00:00:44.270Z,23.54
2018-07-30T00:01:44.260Z,23.54
2018-07-30T00:02:44.299Z,23.61
2018-07-30T00:03:44.239Z,23.54
2018-07-30T00:04:44.226Z,23.54
2018-07-30T00:05:44.216Z,23.54
2018-07-30T00:06:44.209Z,23.63
2018-07-30T00:07:44.196Z,23.48
2018-07-30T00:08:44.236Z,23.54
2018-07-30T00:09:44.172Z,23.57
2018-07-30T00:10:44.162Z,23.55
2018-07-30T00:11:44.152Z,23.50
2018-07-30T00:12:44.139Z,23.54
2018-07-30T00:13:44.131Z,23.48
2018-07-30T00:14:44.143Z,23.57
2018-07-30T00:15:44.129Z,23.50
2018-07-30T00:16:44.100Z,23.51
2018-07-30T00:17:44.087Z,23.58
2018-07-30T00:18:44.075Z,23.55
2018-07-30T00:19:44.068Z,23.47
2018-07-30T00:20:44.053Z,23.51
2018-07-30T00:21:44.054Z,23.48
2018-07-30T00:22:44.031Z,23.48
2018-07-30T00:23:44.031Z,23.40
2018-07-30T00:24:44.024Z,23.33
2018-07-30T00:25:44.003Z,23.31
2018-07-30T00:26:43.988Z,23.36
2018-07-30T00:27:43.976Z,23.27
2018-07-30T00:28:43.966Z,23.32
2018-07-30T00:29:43.976Z,23.27
2018-07-30T00:30:43.946Z,23.17
2018-07-30T00:31:43.937Z,23.12
2018-07-30T00:32:43.926Z,23.19
2018-07-30T00:33:43.911Z,23.23
2018-07-30T00:34:43.902Z,23.20
2018-07-30T00:35:43.908Z,23.12
2018-07-30T00:36:43.882Z,23.04
2018-07-30T00:37:43.869Z,23.01
2018-07-30T00:38:43.862Z,23.04
2018-07-30T00:39:43.850Z,23.02
2018-07-30T00:40:43.855Z,23.05
2018-07-30T00:41:43.826Z,23.00
2018-07-30T00:42:43.818Z,23.00
2018-07-30T00:43:43.808Z,23.01
2018-07-30T00:44:43.795Z,23.09
2018-07-30T00:45:43.786Z,23.05
2018-07-30T00:46:43.789Z,23.01
2018-07-30T00:47:43.764Z,22.91
2018-07-30T00:48:43.755Z,22.86
2018-07-30T00:49:43.742Z,22.86
2018-07-30T00:50:43.747Z,22.79
2018-07-30T00:51:43.719Z,22.76
2018-07-30T00:52:43.710Z,22.79
2018-07-30T00:53:43.697Z,22.73
2018-07-30T00:54:43.690Z,22.75
2018-07-30T00:55:43.716Z,22.65
2018-07-30T00:56:43.674Z,22.67
2018-07-30T00:57:43.657Z,22.64
2018-07-30T00:58:43.645Z,22.62
2018-07-30T00:59:43.633Z,22.58
2018-07-30T01:00:43.622Z,22.58
2018-07-30T01:01:43.626Z,22.68
2018-07-30T01:02:43.604Z,22.62
2018-07-30T01:03:43.591Z,22.70
2018-07-30T01:04:43.581Z,22.54
2018-07-30T01:05:43.567Z,22.65
2018-07-30T01:06:43.577Z,22.65
2018-07-30T01:07:43.557Z,22.62
2018-07-30T01:08:43.539Z,22.64
2018-07-30T01:09:43.524Z,22.60
2018-07-30T01:10:43.516Z,22.61
2018-07-30T01:11:43.506Z,22.65
2018-07-30T01:12:43.508Z,22.58
2018-07-30T01:13:43.498Z,22.60
2018-07-30T01:14:43.476Z,22.70
2018-07-30T01:15:43.462Z,22.62
2018-07-30T01:16:43.448Z,22.57
2018-07-30T01:17:43.452Z,22.47
2018-07-30T01:18:43.430Z,22.40
2018-07-30T01:19:43.419Z,22.36
2018-07-30T01:20:43.408Z,22.47
2018-07-30T01:21:43.424Z,22.45
2018-07-30T01:22:43.397Z,22.51
2018-07-30T01:23:43.374Z,22.52
2018-07-30T01:24:43.378Z,22.58
2018-07-30T01:25:43.354Z,22.60
2018-07-30T01:26:43.345Z,22.58
2018-07-30T01:27:43.330Z,22.60
2018-07-30T01:28:43.336Z,22.60
2018-07-30T01:29:43.309Z,22.60
2018-07-30T01:30:43.298Z,22.67
2018-07-30T01:31:43.292Z,22.62
2018-07-30T01:32:43.276Z,22.60
2018-07-30T01:33:43.285Z,22.51
2018-07-30T01:34:43.265Z,22.52
2018-07-30T01:35:43.266Z,22.60
2018-07-30T01:36:43.241Z,22.55
2018-07-30T01:37:43.223Z,22.55
2018-07-30T01:38:43.217Z,22.57
2018-07-30T01:39:43.202Z,22.55
2018-07-30T01:40:43.206Z,22.54
2018-07-30T01:41:43.181Z,22.52
2018-07-30T01:42:43.174Z,22.54
2018-07-30T01:43:43.174Z,22.60
2018-07-30T01:44:43.150Z,22.60
2018-07-30T01:45:43.136Z,22.62
2018-07-30T01:46:43.140Z,22.61
2018-07-30T01:47:43.117Z,22.55
2018-07-30T01:48:43.108Z,22.47
2018-07-30T01:49:43.102Z,22.45
2018-07-30T01:50:43.096Z,22.46
2018-07-30T01:51:43.074Z,22.51
2018-07-30T01:52:43.063Z,22.47
2018-07-30T01:53:43.052Z,22.46
2018-07-30T01:54:43.041Z,22.46
2018-07-30T01:55:43.054Z,22.45
2018-07-30T01:56:43.019Z,22.45
2018-07-30T01:57:43.007Z,22.42
2018-07-30T01:58:42.995Z,22.40
2018-07-30T01:59:42.985Z,22.46
2018-07-30T02:00:42.976Z,22.47
2018-07-30T02:01:42.979Z,22.37
2018-07-30T02:02:42.964Z,22.40
2018-07-30T02:03:42.943Z,22.39
2018-07-30T02:04:42.931Z,22.21
2018-07-30T02:05:42.923Z,22.31
2018-07-30T02:06:42.953Z,22.28
2018-07-30T02:07:42.903Z,22.25
2018-07-30T02:08:42.892Z,22.24
2018-07-30T02:09:42.879Z,22.27
2018-07-30T02:10:42.869Z,22.18
2018-07-30T02:11:42.856Z,22.12
2018-07-30T02:12:42.858Z,22.21
2018-07-30T02:13:42.834Z,22.14
2018-07-30T02:14:42.836Z,22.09
2018-07-30T02:15:42.814Z,22.17
2018-07-30T02:16:42.800Z,22.20
2018-07-30T02:17:42.790Z,22.20
2018-07-30T02:18:42.796Z,22.15
2018-07-30T02:19:42.772Z,22.20
2018-07-30T02:20:42.762Z,22.24
2018-07-30T02:21:42.751Z,22.12
2018-07-30T02:22:42.736Z,22.06
2018-07-30T02:23:42.744Z,22.10
2018-07-30T02:24:42.719Z,22.05
2018-07-30T02:25:42.705Z,22.09
2018-07-30T02:26:42.698Z,22.03
2018-07-30T02:27:42.683Z,22.06
2018-07-30T02:28:42.676Z,22.00
2018-07-30T02:29:42.678Z,21.99
2018-07-30T02:30:42.653Z,21.96
2018-07-30T02:31:42.643Z,21.88
2018-07-30T02:32:42.633Z,21.91
2018-07-30T02:33:42.618Z,21.91
2018-07-30T02:34:42.626Z,21.88
2018-07-30T02:35:42.597Z,21.86
2018-07-30T02:36:42.589Z,21.88
2018-07-30T02:37:42.577Z,21.86
2018-07-30T02:38:42.568Z,21.77
2018-07-30T02:39:42.556Z,21.74
2018-07-30T02:40:42.557Z,21.75
2018-07-30T02:41:42.536Z,21.69
2018-07-30T02:42:42.526Z,21.62
2018-07-30T02:43:42.513Z,21.61
2018-07-30T02:44:42.508Z,21.64
2018-07-30T02:45:42.505Z,21.54
2018-07-30T02:46:42.477Z,21.61
2018-07-30T02:47:42.470Z,21.67
2018-07-30T02:48:42.466Z,21.56
2018-07-30T02:49:42.448Z,21.62
2018-07-30T02:50:42.450Z,21.59
2018-07-30T02:51:42.424Z,21.49
2018-07-30T02:52:42.412Z,21.52
2018-07-30T02:53:42.404Z,21.49
2018-07-30T02:54:42.394Z,21.49
2018-07-30T02:55:42.404Z,21.47
2018-07-30T02:56:42.376Z,21.42
2018-07-30T02:57:42.489Z,21.52
2018-07-30T02:58:42.353Z,21.46
2018-07-30T02:59:42.339Z,21.50
2018-07-30T03:00:42.331Z,21.44
2018-07-30T03:01:42.333Z,21.38
2018-07-30T03:02:42.309Z,21.29
2018-07-30T03:03:42.294Z,21.24
2018-07-30T03:04:42.284Z,21.24
2018-07-30T03:05:42.272Z,21.25
2018-07-30T03:06:42.276Z,21.24
2018-07-30T03:07:42.267Z,21.32
2018-07-30T03:08:42.244Z,21.32
2018-07-30T03:09:42.238Z,21.32
2018-07-30T03:10:42.221Z,21.32
2018-07-30T03:11:42.211Z,21.37
2018-07-30T03:12:42.240Z,21.31
2018-07-30T03:13:42.184Z,21.29
2018-07-30T03:14:42.182Z,21.32
2018-07-30T03:15:42.169Z,21.29
2018-07-30T03:16:42.157Z,21.29
2018-07-30T03:17:42.144Z,21.35
2018-07-30T03:18:42.149Z,21.29
2018-07-30T03:19:42.124Z,21.34
2018-07-30T03:20:42.117Z,21.31
2018-07-30T03:21:42.106Z,21.27
2018-07-30T03:22:42.132Z,21.19
2018-07-30T03:23:42.078Z,21.22
2018-07-30T03:24:42.072Z,21.24
2018-07-30T03:25:42.059Z,21.27
2018-07-30T03:26:42.048Z,21.27
2018-07-30T03:27:42.037Z,21.22
2018-07-30T03:28:42.059Z,21.21
2018-07-30T03:29:42.035Z,21.09
2018-07-30T03:30:42.010Z,21.12
2018-07-30T03:31:42.000Z,21.21
2018-07-30T03:32:41.982Z,21.12
2018-07-30T03:33:41.972Z,21.10
2018-07-30T03:34:41.964Z,21.12
2018-07-30T03:35:41.967Z,21.13
2018-07-30T03:36:41.943Z,21.09
2018-07-30T03:37:41.933Z,21.09
2018-07-30T03:38:41.921Z,21.09
2018-07-30T03:39:41.909Z,21.06
2018-07-30T03:40:41.917Z,21.07
2018-07-30T03:41:41.889Z,21.04
2018-07-30T03:42:41.877Z,21.06
2018-07-30T03:43:41.869Z,21.01
2018-07-30T03:44:41.856Z,20.98
2018-07-30T03:45:41.848Z,21.04
2018-07-30T03:46:41.847Z,20.95
2018-07-30T03:47:41.824Z,21.01
2018-07-30T03:48:41.818Z,20.92
2018-07-30T03:49:41.800Z,20.84
2018-07-30T03:50:41.839Z,20.91
2018-07-30T03:51:41.779Z,20.89
2018-07-30T03:52:41.768Z,20.92
2018-07-30T03:53:41.767Z,20.92
2018-07-30T03:54:41.767Z,20.89
2018-07-30T03:55:41.738Z,20.85
2018-07-30T03:56:41.743Z,20.84
2018-07-30T03:57:41.717Z,20.80
2018-07-30T03:58:41.705Z,20.76
2018-07-30T03:59:41.696Z,20.77
2018-07-30T04:00:41.682Z,20.76
2018-07-30T04:01:41.686Z,20.74
2018-07-30T04:02:41.697Z,20.72
2018-07-30T04:03:41.652Z,20.74
2018-07-30T04:04:41.641Z,20.72
2018-07-30T04:05:41.662Z,20.79
2018-07-30T04:06:41.617Z,20.76
2018-07-30T04:07:41.609Z,20.76
2018-07-30T04:08:41.600Z,20.70
2018-07-30T04:09:41.588Z,20.72
2018-07-30T04:10:41.583Z,20.66
2018-07-30T04:11:41.580Z,20.73
2018-07-30T04:12:41.577Z,20.66
2018-07-30T04:13:41.542Z,20.72
2018-07-30T04:14:41.536Z,20.76
2018-07-30T04:15:41.522Z,20.74
2018-07-30T04:16:41.529Z,20.77
2018-07-30T04:17:41.500Z,20.76
2018-07-30T04:18:41.492Z,20.77
2018-07-30T04:19:41.478Z,20.79
2018-07-30T04:20:41.471Z,20.84
2018-07-30T04:21:41.478Z,20.95
2018-07-30T04:22:41.484Z,20.89
2018-07-30T04:23:41.437Z,20.89
2018-07-30T04:24:41.428Z,20.92
2018-07-30T04:25:41.416Z,20.88
2018-07-30T04:26:41.409Z,20.98
2018-07-30T04:27:41.413Z,20.95
2018-07-30T04:28:41.401Z,21.04
2018-07-30T04:29:41.369Z,20.98
2018-07-30T04:30:41.400Z,20.99
2018-07-30T04:31:41.348Z,21.07
2018-07-30T04:32:41.340Z,20.98
2018-07-30T04:33:41.331Z,21.03
2018-07-30T04:34:41.331Z,21.13
2018-07-30T04:35:41.308Z,21.10
2018-07-30T04:36:41.297Z,21.06
2018-07-30T04:37:41.287Z,21.10
2018-07-30T04:38:41.291Z,21.13
2018-07-30T04:39:41.265Z,21.13
2018-07-30T04:40:41.252Z,21.13
2018-07-30T04:41:41.241Z,21.16
2018-07-30T04:42:41.240Z,21.16
2018-07-30T04:43:41.259Z,21.09
2018-07-30T04:44:41.219Z,21.17
2018-07-30T04:45:41.202Z,21.19
2018-07-30T04:46:41.199Z,21.28
2018-07-30T04:47:41.179Z,21.27
2018-07-30T04:48:41.178Z,21.25
2018-07-30T04:49:41.155Z,21.31
2018-07-30T04:50:41.158Z,21.35
2018-07-30T04:51:41.134Z,21.34
2018-07-30T04:52:41.128Z,21.38
2018-07-30T04:53:41.131Z,21.40
2018-07-30T04:54:41.107Z,21.43
2018-07-30T04:55:41.090Z,21.46
2018-07-30T04:56:41.083Z,21.47
2018-07-30T04:57:41.069Z,21.50
2018-07-30T04:58:41.061Z,21.42
2018-07-30T04:59:41.069Z,21.56
2018-07-30T05:00:41.040Z,21.52
2018-07-30T05:01:41.030Z,21.58
2018-07-30T05:02:41.015Z,21.62
2018-07-30T05:03:41.020Z,21.58
2018-07-30T05:04:41.001Z,21.71
2018-07-30T05:05:40.996Z,21.69
2018-07-30T05:06:40.987Z,21.77
2018-07-30T05:07:40.964Z,21.77
2018-07-30T05:08:40.950Z,21.84
2018-07-30T05:09:40.944Z,21.90
2018-07-30T05:10:40.932Z,21.88
2018-07-30T05:11:40.964Z,21.88
2018-07-30T05:12:40.924Z,21.92
2018-07-30T05:13:40.902Z,22.00
2018-07-30T05:14:40.887Z,22.10
2018-07-30T05:15:40.878Z,22.27
2018-07-30T05:16:40.864Z,22.25
2018-07-30T05:17:40.867Z,22.25
2018-07-30T05:18:40.843Z,22.28
2018-07-30T05:19:40.896Z,22.30
2018-07-30T05:20:40.844Z,22.35
2018-07-30T05:21:40.813Z,22.46
2018-07-30T05:22:40.801Z,22.47
2018-07-30T05:23:40.793Z,22.62
2018-07-30T05:24:40.781Z,22.65
2018-07-30T05:25:40.770Z,22.75
2018-07-30T05:26:40.770Z,23.00
2018-07-30T05:27:40.747Z,23.12
2018-07-30T05:28:40.738Z,23.39
2018-07-30T05:29:40.724Z,23.60
2018-07-30T05:30:40.715Z,23.85
2018-07-30T05:31:40.769Z,23.88
2018-07-30T05:32:40.696Z,24.05
2018-07-30T05:33:40.680Z,24.27
2018-07-30T05:34:40.673Z,24.32
2018-07-30T05:35:40.659Z,24.27
2018-07-30T05:36:40.651Z,24.12
2018-07-30T05:37:40.653Z,24.03
2018-07-30T05:38:40.666Z,23.90
2018-07-30T05:39:40.618Z,23.94
2018-07-30T05:40:40.605Z,23.90
2018-07-30T05:41:40.596Z,24.00
2018-07-30T05:42:40.603Z,24.03
2018-07-30T05:43:40.576Z,23.97
2018-07-30T05:44:40.578Z,23.98
2018-07-30T05:45:40.553Z,23.91
2018-07-30T05:46:40.544Z,23.97
2018-07-30T05:47:40.538Z,24.18
2018-07-30T05:48:40.519Z,24.20
2018-07-30T05:49:40.544Z,24.43
2018-07-30T05:50:40.500Z,24.62
2018-07-30T05:51:40.496Z,24.52
2018-07-30T05:52:40.478Z,24.40
2018-07-30T05:53:40.465Z,24.32
2018-07-30T05:54:40.469Z,24.27
2018-07-30T05:55:40.466Z,24.27
2018-07-30T05:56:40.461Z,24.21
2018-07-30T05:57:40.421Z,24.20
2018-07-30T05:58:40.422Z,24.10
2018-07-30T05:59:40.407Z,24.03
2018-07-30T06:00:40.410Z,24.00
2018-07-30T06:01:40.388Z,23.95
2018-07-30T06:02:40.371Z,24.15
2018-07-30T06:03:40.364Z,24.52
2018-07-30T06:04:40.351Z,24.88
2018-07-30T06:05:40.349Z,25.06
2018-07-30T06:06:40.328Z,25.03
2018-07-30T06:07:40.313Z,24.99
2018-07-30T06:08:40.304Z,25.03
2018-07-30T06:09:40.348Z,26.05
2018-07-30T06:10:40.298Z,26.66
2018-07-30T06:11:40.270Z,26.97
2018-07-30T06:12:40.262Z,27.90
2018-07-30T06:13:40.251Z,28.54
2018-07-30T06:14:40.238Z,28.67
2018-07-30T06:15:40.245Z,28.68
2018-07-30T06:16:40.220Z,29.34
2018-07-30T06:17:40.209Z,29.73
2018-07-30T06:18:40.200Z,28.83
2018-07-30T06:19:40.189Z,28.12
2018-07-30T06:20:40.191Z,27.97
2018-07-30T06:21:40.168Z,27.85
2018-07-30T06:22:40.180Z,27.55
2018-07-30T06:23:40.149Z,27.29
2018-07-30T06:24:40.136Z,27.32
2018-07-30T06:25:40.129Z,27.18
2018-07-30T06:26:40.115Z,26.97
2018-07-30T06:27:40.108Z,26.70
2018-07-30T06:28:40.106Z,26.26
2018-07-30T06:29:40.084Z,26.05
2018-07-30T06:30:40.079Z,25.90
2018-07-30T06:31:40.073Z,26.05
2018-07-30T06:32:40.053Z,26.33
2018-07-30T06:33:40.054Z,26.37
2018-07-30T06:34:40.035Z,26.39
2018-07-30T06:35:40.018Z,26.30
2018-07-30T06:36:40.010Z,26.28
2018-07-30T06:37:39.997Z,26.17
2018-07-30T06:38:40.005Z,26.09
2018-07-30T06:39:39.974Z,26.09
2018-07-30T06:40:39.964Z,26.21
2018-07-30T06:41:39.976Z,26.40
2018-07-30T06:42:39.938Z,26.65
2018-07-30T06:43:39.930Z,26.88
2018-07-30T06:44:39.916Z,27.00
2018-07-30T06:45:39.910Z,27.13
2018-07-30T06:46:39.897Z,27.00
2018-07-30T06:47:39.897Z,26.91
2018-07-30T06:48:39.876Z,26.81
2018-07-30T06:49:39.866Z,27.09
2018-07-30T06:50:39.870Z,27.28
2018-07-30T06:51:39.843Z,27.44
2018-07-30T06:52:39.834Z,27.74
2018-07-30T06:53:39.826Z,27.87
2018-07-30T06:54:39.811Z,28.34
2018-07-30T06:55:39.811Z,28.59
2018-07-30T06:56:39.805Z,28.89
2018-07-30T06:57:39.783Z,29.30
2018-07-30T06:58:39.772Z,29.52
2018-07-30T06:59:39.762Z,29.82
2018-07-30T07:00:39.748Z,30.15
2018-07-30T07:01:39.761Z,30.65
2018-07-30T07:02:39.729Z,30.75
2018-07-30T07:03:39.720Z,31.06
2018-07-30T07:04:39.706Z,31.16
2018-07-30T07:05:39.696Z,31.14
2018-07-30T07:06:39.684Z,31.41
2018-07-30T07:07:39.691Z,31.63
2018-07-30T07:08:39.664Z,32.11
2018-07-30T07:09:39.657Z,32.48
2018-07-30T07:10:39.644Z,32.99
2018-07-30T07:11:39.633Z,33.26
2018-07-30T07:12:39.631Z,33.51
2018-07-30T07:13:39.612Z,33.81
2018-07-30T07:14:39.602Z,34.05
2018-07-30T07:15:39.604Z,34.34
2018-07-30T07:16:39.671Z,34.56
2018-07-30T07:17:39.590Z,34.69
2018-07-30T07:18:39.560Z,35.07
2018-07-30T07:19:39.553Z,35.47
2018-07-30T07:20:39.555Z,35.74
2018-07-30T07:21:39.547Z,36.05
2018-07-30T07:22:39.521Z,36.22
2018-07-30T07:23:39.524Z,36.34
2018-07-30T07:24:39.498Z,36.50
2018-07-30T07:25:39.486Z,36.50
2018-07-30T07:26:39.480Z,36.73
2018-07-30T07:27:39.469Z,36.81
2018-07-30T07:28:39.476Z,36.95
2018-07-30T07:29:39.446Z,37.10
2018-07-30T07:30:39.435Z,37.27
2018-07-30T07:31:39.428Z,37.36
2018-07-30T07:32:39.415Z,37.37
2018-07-30T07:33:39.406Z,37.12
2018-07-30T07:34:39.406Z,37.24
2018-07-30T07:35:39.385Z,37.25
2018-07-30T07:36:39.375Z,37.32
2018-07-30T07:37:39.366Z,37.43
2018-07-30T07:38:39.357Z,37.28
2018-07-30T07:39:39.358Z,37.12
2018-07-30T07:40:39.348Z,37.09
2018-07-30T07:41:39.327Z,37.05
2018-07-30T07:42:39.316Z,37.02
2018-07-30T07:43:39.306Z,37.15
2018-07-30T07:44:39.309Z,37.10
2018-07-30T07:45:39.284Z,37.15
2018-07-30T07:46:39.279Z,37.02
2018-07-30T07:47:39.264Z,37.20
2018-07-30T07:48:39.260Z,37.21
2018-07-30T07:49:39.255Z,37.10
2018-07-30T07:50:39.336Z,37.06
2018-07-30T07:51:39.241Z,36.93
2018-07-30T07:52:39.249Z,36.83
2018-07-30T07:53:39.205Z,36.75
2018-07-30T07:54:39.193Z,36.83
2018-07-30T07:55:39.184Z,36.60
2018-07-30T07:56:39.172Z,36.75
2018-07-30T07:57:39.164Z,36.41
2018-07-30T07:58:39.165Z,36.41
2018-07-30T07:59:39.145Z,36.56
2018-07-30T08:00:39.134Z,36.37
2018-07-30T08:01:39.121Z,36.34
2018-07-30T08:02:39.125Z,36.34
2018-07-30T08:03:39.101Z,36.50
2018-07-30T08:04:39.104Z,36.53
2018-07-30T08:05:39.085Z,36.66
2018-07-30T08:06:39.072Z,36.72
2018-07-30T08:07:39.104Z,36.66
2018-07-30T08:08:39.052Z,36.66
2018-07-30T08:09:39.083Z,36.75
2018-07-30T08:10:39.035Z,36.57
2018-07-30T08:11:39.029Z,36.49
2018-07-30T08:12:39.016Z,36.01
2018-07-30T08:13:39.047Z,35.84
2018-07-30T08:14:39.014Z,35.96
2018-07-30T08:15:38.981Z,36.12
2018-07-30T08:16:38.976Z,35.97
2018-07-30T08:17:38.968Z,36.03
2018-07-30T08:18:38.954Z,35.90
2018-07-30T08:19:38.943Z,35.85
2018-07-30T08:20:38.945Z,35.97
2018-07-30T08:21:38.922Z,36.01
2018-07-30T08:22:38.914Z,35.85
2018-07-30T08:23:38.902Z,35.96
2018-07-30T08:24:38.913Z,35.94
2018-07-30T08:25:38.897Z,36.09
2018-07-30T08:26:38.875Z,36.03
2018-07-30T08:27:38.862Z,36.08
2018-07-30T08:28:38.850Z,35.99
2018-07-30T08:29:38.855Z,35.97
2018-07-30T08:30:38.831Z,36.28
2018-07-30T08:31:38.821Z,36.47
2018-07-30T08:32:38.815Z,36.50
2018-07-30T08:33:38.805Z,36.08
2018-07-30T08:34:38.809Z,35.84
2018-07-30T08:35:38.783Z,35.60
2018-07-30T08:36:38.783Z,34.94
2018-07-30T08:37:38.779Z,34.43
2018-07-30T08:38:38.755Z,34.39
2018-07-30T08:39:38.744Z,34.56
2018-07-30T08:40:38.735Z,34.75
2018-07-30T08:41:38.727Z,35.10
2018-07-30T08:42:38.727Z,35.40
2018-07-30T08:43:38.705Z,35.63
2018-07-30T08:44:38.697Z,35.90
2018-07-30T08:45:38.684Z,35.92
2018-07-30T08:46:38.679Z,35.99
2018-07-30T08:47:38.676Z,36.09
2018-07-30T08:48:38.660Z,35.63
2018-07-30T08:49:38.654Z,35.03
2018-07-30T08:50:38.637Z,34.54
2018-07-30T08:51:38.627Z,34.19
2018-07-30T08:52:38.637Z,33.76
2018-07-30T08:53:38.611Z,33.84
2018-07-30T08:54:38.601Z,33.76
2018-07-30T08:55:38.588Z,34.15
2018-07-30T08:56:38.582Z,34.44
2018-07-30T08:57:38.570Z,34.61
2018-07-30T08:58:38.568Z,34.84
2018-07-30T08:59:38.552Z,34.73
2018-07-30T09:00:38.541Z,34.77
2018-07-30T09:01:38.536Z,33.78
2018-07-30T09:02:38.521Z,33.16
2018-07-30T09:03:38.522Z,33.15
2018-07-30T09:04:38.500Z,33.51
2018-07-30T09:05:38.489Z,33.84
2018-07-30T09:06:38.488Z,34.16
2018-07-30T09:07:38.474Z,34.40
2018-07-30T09:08:38.480Z,34.43
2018-07-30T09:09:38.474Z,34.16
2018-07-30T09:10:38.440Z,33.86
2018-07-30T09:11:38.434Z,33.91
2018-07-30T09:12:38.538Z,33.90
2018-07-30T09:13:38.413Z,33.86
2018-07-30T09:14:38.413Z,33.90
2018-07-30T09:15:38.397Z,34.39
2018-07-30T09:16:38.386Z,34.49
2018-07-30T09:17:38.375Z,34.22
2018-07-30T09:18:38.365Z,34.00
2018-07-30T09:19:38.371Z,33.81
2018-07-30T09:20:38.347Z,33.65
2018-07-30T09:21:38.341Z,33.29
2018-07-30T09:22:38.324Z,32.74
2018-07-30T09:23:38.319Z,32.59
2018-07-30T09:24:38.322Z,32.62
2018-07-30T09:25:38.307Z,32.75
2018-07-30T09:26:38.289Z,32.74
2018-07-30T09:27:38.280Z,32.56
2018-07-30T09:28:38.267Z,32.28
2018-07-30T09:29:38.256Z,32.35
2018-07-30T09:30:38.260Z,32.22
2018-07-30T09:31:38.240Z,32.40
2018-07-30T09:32:38.276Z,32.26
2018-07-30T09:33:38.224Z,31.92
2018-07-30T09:34:38.208Z,32.14
2018-07-30T09:35:38.212Z,32.28
2018-07-30T09:36:38.187Z,32.45
2018-07-30T09:37:38.177Z,32.81
2018-07-30T09:38:38.192Z,33.14
2018-07-30T09:39:38.171Z,33.68
2018-07-30T09:40:38.171Z,33.94
2018-07-30T09:41:38.137Z,34.35
2018-07-30T09:42:38.128Z,34.58
2018-07-30T09:43:38.119Z,34.73
2018-07-30T09:44:38.199Z,34.75
2018-07-30T09:45:38.104Z,34.66
2018-07-30T09:46:38.112Z,34.84
2018-07-30T09:47:38.083Z,34.73
2018-07-30T09:48:38.069Z,34.19
2018-07-30T09:49:38.063Z,33.60
2018-07-30T09:50:38.111Z,33.44
2018-07-30T09:51:38.065Z,33.61
2018-07-30T09:52:38.034Z,33.73
2018-07-30T09:53:38.024Z,33.57
2018-07-30T09:54:38.013Z,33.49
2018-07-30T09:55:38.005Z,33.44
2018-07-30T09:56:37.992Z,33.54
2018-07-30T09:57:37.994Z,34.00
2018-07-30T09:58:37.976Z,34.58
2018-07-30T09:59:37.964Z,34.84
2018-07-30T10:00:37.956Z,34.58
2018-07-30T10:01:37.944Z,34.39
2018-07-30T10:02:37.943Z,34.19
2018-07-30T10:03:37.927Z,34.22
2018-07-30T10:04:37.916Z,34.06
2018-07-30T10:05:37.928Z,33.98
2018-07-30T10:06:37.897Z,34.06
2018-07-30T10:07:37.903Z,34.43
2018-07-30T10:08:37.877Z,33.87
2018-07-30T10:09:37.904Z,33.51
2018-07-30T10:10:37.862Z,33.12
2018-07-30T10:11:37.874Z,32.69
2018-07-30T10:12:37.848Z,32.11
2018-07-30T10:13:37.831Z,32.00
2018-07-30T10:14:37.817Z,32.07
2018-07-30T10:15:37.823Z,32.08
2018-07-30T10:16:37.799Z,32.25
2018-07-30T10:17:37.835Z,32.51
2018-07-30T10:18:37.781Z,33.01
2018-07-30T10:19:37.772Z,33.50
2018-07-30T10:20:37.775Z,34.08
2018-07-30T10:21:37.753Z,34.56
2018-07-30T10:22:37.738Z,34.87
2018-07-30T10:23:37.738Z,34.88
2018-07-30T10:24:37.733Z,35.06
2018-07-30T10:25:37.712Z,35.07
2018-07-30T10:26:37.704Z,35.26
2018-07-30T10:27:37.707Z,35.03
2018-07-30T10:28:37.683Z,35.22
2018-07-30T10:29:37.679Z,35.29
2018-07-30T10:30:37.678Z,34.99
2018-07-30T10:31:37.668Z,35.33
2018-07-30T10:32:37.647Z,35.82
2018-07-30T10:33:37.656Z,35.89
2018-07-30T10:34:37.725Z,35.41
2018-07-30T10:35:37.622Z,35.26
2018-07-30T10:36:37.613Z,34.81
2018-07-30T10:37:37.640Z,34.73
2018-07-30T10:38:37.605Z,34.66
2018-07-30T10:39:37.592Z,34.78
2018-07-30T10:40:37.573Z,34.87
2018-07-30T10:41:37.561Z,34.56
2018-07-30T10:42:37.561Z,34.69
2018-07-30T10:43:37.563Z,34.70
2018-07-30T10:44:37.533Z,34.78
2018-07-30T10:45:37.525Z,34.89
2018-07-30T10:46:37.514Z,34.88
2018-07-30T10:47:37.503Z,34.97
2018-07-30T10:48:37.491Z,34.96
2018-07-30T10:49:37.496Z,34.70
2018-07-30T10:50:37.474Z,34.94
2018-07-30T10:51:37.464Z,35.23
2018-07-30T10:52:37.503Z,35.56
2018-07-30T10:53:37.447Z,35.37
2018-07-30T10:54:37.437Z,34.72
2018-07-30T10:55:37.431Z,34.56
2018-07-30T10:56:37.417Z,34.80
2018-07-30T10:57:37.409Z,35.04
2018-07-30T10:58:37.414Z,35.28
2018-07-30T10:59:37.398Z,35.53
2018-07-30T11:00:37.381Z,35.74
2018-07-30T11:01:37.369Z,36.05
2018-07-30T11:02:37.359Z,36.12
2018-07-30T11:03:37.350Z,36.29
2018-07-30T11:04:37.356Z,36.32
2018-07-30T11:05:37.332Z,36.41
2018-07-30T11:06:37.322Z,36.35
2018-07-30T11:07:37.311Z,36.34
2018-07-30T11:08:37.304Z,36.43
2018-07-30T11:09:37.362Z,36.44
2018-07-30T11:10:37.288Z,36.68
2018-07-30T11:11:37.291Z,36.75
2018-07-30T11:12:37.270Z,36.51
2018-07-30T11:13:37.259Z,36.69
2018-07-30T11:14:37.299Z,36.78
2018-07-30T11:15:37.255Z,36.88
2018-07-30T11:16:37.234Z,36.53
2018-07-30T11:17:37.220Z,36.28
2018-07-30T11:18:37.213Z,36.28
2018-07-30T11:19:37.201Z,36.29
2018-07-30T11:20:37.212Z,36.41
2018-07-30T11:21:37.196Z,36.46
2018-07-30T11:22:37.177Z,36.62
2018-07-30T11:23:37.168Z,36.75
2018-07-30T11:24:37.164Z,36.75
2018-07-30T11:25:37.152Z,36.83
2018-07-30T11:26:37.154Z,37.02
2018-07-30T11:27:37.132Z,36.51
2018-07-30T11:28:37.123Z,35.96
2018-07-30T11:29:37.112Z,35.72
2018-07-30T11:30:37.116Z,35.65
2018-07-30T11:31:37.110Z,35.62
2018-07-30T11:32:37.089Z,35.26
2018-07-30T11:33:37.190Z,35.26
2018-07-30T11:34:37.066Z,35.63
2018-07-30T11:35:37.058Z,35.71
2018-07-30T11:36:37.066Z,36.28
2018-07-30T11:37:37.039Z,36.59
2018-07-30T11:38:37.026Z,37.07
2018-07-30T11:39:37.025Z,37.39
2018-07-30T11:40:37.029Z,37.62
2018-07-30T11:41:37.025Z,36.81
2018-07-30T11:42:36.990Z,36.75
2018-07-30T11:43:37.003Z,36.80
2018-07-30T11:44:36.978Z,37.06
2018-07-30T11:45:36.969Z,37.15
2018-07-30T11:46:36.959Z,37.12
2018-07-30T11:47:36.965Z,37.20
2018-07-30T11:48:36.952Z,37.37
2018-07-30T11:49:36.934Z,37.15
2018-07-30T11:50:36.924Z,36.59
2018-07-30T11:51:36.913Z,36.00
2018-07-30T11:52:36.935Z,35.77
2018-07-30T11:53:36.951Z,35.75
2018-07-30T11:54:36.890Z,35.80
2018-07-30T11:55:36.883Z,35.81
2018-07-30T11:56:36.870Z,35.38
2018-07-30T11:57:36.859Z,34.88
2018-07-30T11:58:36.853Z,34.47
2018-07-30T11:59:36.864Z,34.35
2018-07-30T12:00:36.835Z,34.73
2018-07-30T12:01:36.826Z,35.28
2018-07-30T12:02:36.814Z,35.75
2018-07-30T12:03:36.802Z,35.65
2018-07-30T12:04:36.797Z,34.97
2018-07-30T12:05:36.802Z,34.70
2018-07-30T12:06:36.774Z,34.42
2018-07-30T12:07:36.764Z,34.39
2018-07-30T12:08:36.757Z,34.32
2018-07-30T12:09:36.744Z,34.56
2018-07-30T12:10:36.735Z,34.73
2018-07-30T12:11:36.741Z,35.18
2018-07-30T12:12:36.722Z,35.52
2018-07-30T12:13:36.840Z,35.53
2018-07-30T12:14:36.699Z,35.48
2018-07-30T12:15:36.688Z,35.10
2018-07-30T12:16:36.704Z,35.10
2018-07-30T12:17:36.675Z,35.33
2018-07-30T12:18:36.680Z,35.65
2018-07-30T12:19:36.650Z,35.89
2018-07-30T12:20:36.643Z,35.55
2018-07-30T12:21:36.639Z,34.94
2018-07-30T12:22:36.631Z,34.64
2018-07-30T12:23:36.655Z,34.54
2018-07-30T12:24:36.616Z,34.13
2018-07-30T12:25:36.594Z,33.78
2018-07-30T12:26:36.607Z,33.69
2018-07-30T12:27:36.575Z,33.88
2018-07-30T12:28:36.565Z,33.93
2018-07-30T12:29:36.615Z,33.84
2018-07-30T12:30:36.612Z,33.76
2018-07-30T12:31:36.537Z,34.06
2018-07-30T12:32:36.528Z,34.64
2018-07-30T12:33:36.519Z,34.87
2018-07-30T12:34:36.510Z,35.22
2018-07-30T12:35:36.517Z,35.50
2018-07-30T12:36:36.574Z,35.81
2018-07-30T12:37:36.480Z,35.87
2018-07-30T12:38:36.476Z,36.07
2018-07-30T12:39:36.463Z,35.90
2018-07-30T12:40:36.493Z,35.65
2018-07-30T12:41:36.444Z,35.47
2018-07-30T12:42:36.454Z,35.53
2018-07-30T12:43:36.426Z,35.65
2018-07-30T12:44:36.423Z,35.75
2018-07-30T12:45:36.407Z,35.72
2018-07-30T12:46:36.401Z,35.72
2018-07-30T12:47:36.388Z,35.92
2018-07-30T12:48:36.387Z,35.77
2018-07-30T12:49:36.369Z,35.87
2018-07-30T12:50:36.442Z,36.09
2018-07-30T12:51:36.367Z,36.41
2018-07-30T12:52:36.366Z,36.51